Hoover, South Dakota
Current Conditions -  °F | °C
As of 10:35 PM on Thursday 27 Nov 2014 (Local Time) from KSPF Reporting Station
Clear Clear  
Wind Chill: 52°   Ceiling: Unl
Heat Index: 52°   Visibility: 10mi
Dew Point: 27°   Wind: 13mph
Humidity: 38%   Direction: 230°SW
Pressure: 29.83"   Gusts: 20mph
Location:  44.9094°N, 103.193°W
Report Text: KSPF 280535Z AUTO 23011G17KT 10SM CLR 11/M03 A2983 RMK AO2
Loading
Personal Weather Stations






























Interactive Weather Map New forecast layout! Learn more

10-Day Weather Forecast

Advertisements
Track Severe Weather on mobile